createdAt,value
2022-07-28T00:01:43.607Z,19.74
2022-07-28T00:06:48.783Z,19.79
2022-07-28T00:11:54.949Z,19.42
2022-07-28T00:16:59.825Z,19.66
2022-07-28T00:22:06.438Z,20.13
2022-07-28T00:27:10.228Z,19.63
2022-07-28T00:32:14.095Z,19.79
2022-07-28T00:37:20.553Z,19.60
2022-07-28T00:42:24.627Z,19.43
2022-07-28T00:47:33.773Z,19.56
2022-07-28T00:52:39.592Z,19.49
2022-07-28T00:57:43.531Z,19.32
2022-07-28T01:02:47.519Z,19.29
2022-07-28T01:08:02.119Z,18.10
2022-07-28T01:13:15.414Z,18.81
2022-07-28T01:18:22.263Z,19.02
2022-07-28T01:23:56.569Z,19.13
2022-07-28T01:29:10.792Z,19.08
2022-07-28T01:34:21.343Z,18.48
2022-07-28T01:39:30.429Z,17.30
2022-07-28T01:44:39.307Z,16.48
2022-07-28T01:49:46.742Z,16.61
2022-07-28T01:54:52.214Z,16.49
2022-07-28T01:59:58.123Z,17.00
2022-07-28T02:05:04.513Z,17.44
2022-07-28T02:10:11.058Z,16.99
2022-07-28T02:15:16.450Z,17.39
2022-07-28T02:20:22.254Z,17.19
2022-07-28T02:25:31.122Z,16.54
2022-07-28T02:30:39.698Z,16.57
2022-07-28T02:35:50.646Z,16.48
2022-07-28T02:40:57.635Z,16.31
2022-07-28T02:46:07.172Z,16.71
2022-07-28T02:51:14.972Z,16.35
2022-07-28T02:56:19.265Z,16.29
2022-07-28T03:01:24.907Z,16.83
2022-07-28T03:06:30.611Z,16.75
2022-07-28T03:11:34.516Z,17.38
2022-07-28T03:16:38.394Z,18.03
2022-07-28T03:21:43.641Z,17.99
2022-07-28T03:26:53.993Z,17.13
2022-07-28T03:31:59.829Z,17.04
2022-07-28T03:37:12.929Z,16.73
2022-07-28T03:42:19.097Z,16.78
2022-07-28T03:47:24.113Z,17.50
2022-07-28T03:52:29.328Z,17.02
2022-07-28T03:57:33.070Z,16.88
2022-07-28T04:02:36.996Z,16.95
2022-07-28T04:07:43.077Z,17.36
2022-07-28T04:12:51.691Z,17.69
2022-07-28T04:17:57.428Z,18.36
2022-07-28T04:23:02.730Z,17.84
2022-07-28T04:28:06.684Z,17.62
2022-07-28T04:33:12.979Z,17.41
2022-07-28T04:38:18.261Z,17.74
2022-07-28T04:43:23.487Z,18.81
2022-07-28T04:48:27.872Z,17.73
2022-07-28T04:53:33.122Z,17.63
2022-07-28T04:58:37.131Z,17.40
2022-07-28T05:03:40.888Z,17.42
2022-07-28T05:08:46.051Z,17.38
2022-07-28T05:13:49.867Z,17.61
2022-07-28T05:18:53.821Z,17.63
2022-07-28T05:23:58.912Z,17.65
2022-07-28T05:29:03.250Z,18.35
2022-07-28T05:34:07.253Z,18.30
2022-07-28T05:39:12.676Z,19.88
2022-07-28T05:44:18.368Z,20.18
2022-07-28T05:49:23.923Z,18.86
2022-07-28T05:54:29.428Z,19.49
2022-07-28T05:59:33.663Z,18.60
2022-07-28T06:04:37.534Z,17.82
2022-07-28T06:09:45.230Z,18.54
2022-07-28T06:14:49.097Z,17.43
2022-07-28T06:19:53.115Z,16.90
2022-07-28T06:24:58.224Z,17.70
2022-07-28T06:30:02.056Z,18.01
2022-07-28T06:35:09.524Z,17.76
2022-07-28T06:40:18.865Z,18.08
2022-07-28T06:45:26.005Z,18.31
2022-07-28T06:50:33.521Z,18.57
2022-07-28T06:55:42.121Z,19.32
2022-07-28T07:00:56.256Z,18.87
2022-07-28T07:06:01.032Z,18.78
2022-07-28T07:11:06.589Z,20.64
2022-07-28T07:16:10.215Z,19.26
2022-07-28T07:21:14.246Z,19.04
2022-07-28T07:26:19.396Z,18.83
2022-07-28T07:31:23.235Z,19.63
2022-07-28T07:36:26.980Z,20.54
2022-07-28T07:41:32.169Z,21.79
2022-07-28T07:46:37.260Z,21.67
2022-07-28T07:51:41.138Z,21.65
2022-07-28T07:56:46.224Z,21.06
2022-07-28T08:01:54.624Z,21.02
2022-07-28T08:06:58.379Z,21.16
2022-07-28T08:12:04.129Z,23.17
2022-07-28T08:17:07.861Z,21.74
2022-07-28T08:22:11.676Z,22.00
2022-07-28T08:27:17.061Z,20.93
2022-07-28T08:32:20.917Z,21.41
2022-07-28T08:37:24.605Z,22.51
2022-07-28T08:42:38.525Z,22.12
2022-07-28T08:48:07.292Z,23.20
2022-07-28T08:53:09.015Z,23.71
2022-07-28T08:58:14.522Z,24.15
2022-07-28T09:03:18.554Z,25.40
2022-07-28T09:08:22.537Z,26.15
2022-07-28T09:13:27.682Z,25.97
2022-07-28T09:18:31.514Z,27.35
2022-07-28T09:23:46.177Z,25.23
2022-07-28T09:28:55.648Z,25.36
2022-07-28T09:34:03.993Z,26.05
2022-07-28T09:39:08.239Z,25.57
2022-07-28T09:44:19.574Z,24.05
2022-07-28T09:49:28.493Z,23.79
2022-07-28T09:54:36.141Z,24.82
2022-07-28T09:59:47.101Z,24.36
2022-07-28T10:04:57.646Z,25.16
2022-07-28T10:10:03.976Z,24.13
2022-07-28T10:15:30.878Z,23.76
2022-07-28T10:20:35.511Z,25.24
2022-07-28T10:25:42.136Z,25.97
2022-07-28T10:30:50.284Z,25.37
2022-07-28T10:35:55.691Z,24.96
2022-07-28T10:41:02.693Z,24.74
2022-07-28T10:46:11.835Z,25.66
2022-07-28T10:51:21.975Z,24.49
2022-07-28T10:56:42.620Z,24.64
2022-07-28T11:01:49.725Z,25.49
2022-07-28T11:07:10.951Z,25.01
2022-07-28T11:12:15.529Z,26.07
2022-07-28T11:17:24.390Z,25.29
2022-07-28T11:22:36.609Z,25.77
2022-07-28T11:28:05.030Z,26.01
2022-07-28T11:33:11.132Z,28.60
2022-07-28T11:38:16.056Z,28.26
2022-07-28T11:43:37.720Z,29.62
2022-07-28T11:48:45.645Z,31.27
2022-07-28T11:53:51.126Z,33.36
2022-07-28T11:58:58.684Z,33.11
2022-07-28T12:04:13.283Z,28.20
2022-07-28T12:09:21.915Z,26.56
2022-07-28T12:14:30.353Z,29.70
2022-07-28T12:19:35.465Z,30.12
2022-07-28T12:24:45.611Z,29.02
2022-07-28T12:29:58.876Z,28.21
2022-07-28T12:35:04.454Z,27.88
2022-07-28T12:40:10.866Z,28.01
2022-07-28T12:45:14.779Z,28.86
2022-07-28T12:50:20.909Z,27.61
2022-07-28T12:55:27.888Z,27.79
2022-07-28T13:00:34.218Z,27.54
2022-07-28T13:05:57.910Z,29.35
2022-07-28T13:11:01.778Z,31.13
2022-07-28T13:16:12.434Z,32.29
2022-07-28T13:21:17.580Z,30.93
2022-07-28T13:26:21.369Z,31.77
2022-07-28T13:31:25.178Z,31.46
2022-07-28T13:36:30.443Z,32.77
2022-07-28T13:41:57.583Z,32.28
2022-07-28T13:46:59.611Z,30.61
2022-07-28T13:52:06.903Z,30.43
2022-07-28T13:57:17.250Z,32.06
2022-07-28T14:02:21.628Z,33.17
2022-07-28T14:07:31.275Z,31.65
2022-07-28T14:12:37.439Z,31.94
2022-07-28T14:17:43.291Z,32.82
2022-07-28T14:22:50.467Z,32.71
2022-07-28T14:27:55.742Z,31.99
2022-07-28T14:32:59.548Z,29.95
2022-07-28T14:38:51.185Z,27.79
2022-07-28T14:43:32.627Z,25.88
2022-07-28T14:48:36.473Z,26.71
2022-07-28T14:53:50.057Z,26.71
2022-07-28T14:58:55.891Z,26.92
2022-07-28T15:03:59.812Z,27.94
2022-07-28T15:09:06.759Z,30.54
2022-07-28T15:14:10.372Z,31.08
2022-07-28T15:19:14.130Z,31.39
2022-07-28T15:24:19.445Z,29.97
2022-07-28T15:29:23.729Z,29.05
2022-07-28T15:34:27.393Z,27.95
2022-07-28T15:39:32.558Z,26.61
2022-07-28T15:44:37.445Z,26.40
2022-07-28T15:49:41.661Z,26.84
2022-07-28T15:54:46.848Z,25.22
2022-07-28T15:59:50.955Z,26.14
2022-07-28T16:04:54.925Z,26.26
2022-07-28T16:10:00.081Z,25.78
2022-07-28T16:15:03.988Z,25.63
2022-07-28T16:20:10.238Z,25.13
2022-07-28T16:25:17.720Z,24.90
2022-07-28T16:30:21.724Z,25.19
2022-07-28T16:35:25.946Z,24.87
2022-07-28T16:40:32.641Z,24.46
2022-07-28T16:45:38.357Z,25.28
2022-07-28T16:50:43.397Z,25.56
2022-07-28T16:55:49.081Z,25.62
2022-07-28T17:00:53.045Z,25.38
2022-07-28T17:05:57.138Z,25.40
2022-07-28T17:11:02.815Z,25.23
2022-07-28T17:16:07.336Z,24.99
2022-07-28T17:21:13.229Z,24.79
2022-07-28T17:31:43.539Z,24.92
2022-07-28T17:36:48.411Z,24.54
2022-07-28T17:41:54.739Z,24.03
2022-07-28T17:46:59.223Z,24.03
2022-07-28T17:52:05.120Z,24.23
2022-07-28T17:57:10.431Z,24.51
2022-07-28T18:02:15.280Z,24.04
2022-07-28T18:07:19.884Z,23.63
2022-07-28T18:12:24.957Z,23.50
2022-07-28T18:17:33.033Z,23.84
2022-07-28T18:22:36.845Z,23.54
2022-07-28T18:27:41.903Z,23.80
2022-07-28T18:32:45.769Z,23.04
2022-07-28T18:37:50.371Z,23.04
2022-07-28T18:42:55.942Z,22.95
2022-07-28T18:48:00.536Z,22.75
2022-07-28T18:53:04.466Z,22.65
2022-07-28T18:58:10.595Z,22.48
2022-07-28T19:03:14.604Z,22.62
2022-07-28T19:08:18.576Z,22.49
2022-07-28T19:13:23.710Z,22.41
2022-07-28T19:18:27.439Z,22.36
2022-07-28T19:23:31.412Z,22.30
2022-07-28T19:28:36.572Z,21.84
2022-07-28T19:33:44.069Z,21.48
2022-07-28T19:38:47.997Z,21.45
2022-07-28T19:43:53.436Z,21.11
2022-07-28T19:48:57.403Z,20.73
2022-07-28T19:54:01.277Z,20.89
2022-07-28T19:59:07.716Z,20.76
2022-07-28T20:04:11.705Z,20.86
2022-07-28T20:09:16.773Z,20.96
2022-07-28T20:14:21.904Z,20.97
2022-07-28T20:19:25.684Z,21.17
2022-07-28T20:24:29.673Z,20.94
2022-07-28T20:29:34.947Z,21.10
2022-07-28T20:34:38.610Z,21.18
2022-07-28T20:39:45.239Z,21.53
2022-07-28T20:44:51.421Z,21.70
2022-07-28T20:49:55.676Z,21.86
2022-07-28T20:54:59.399Z,21.69
2022-07-28T21:00:07.242Z,21.77
2022-07-28T21:05:20.183Z,21.61
2022-07-28T21:10:30.541Z,21.39
2022-07-28T21:15:35.622Z,21.00
2022-07-28T21:20:39.339Z,20.84
2022-07-28T21:25:45.239Z,20.56
2022-07-28T21:30:50.283Z,20.33
2022-07-28T21:35:53.884Z,20.44
2022-07-28T21:40:58.270Z,20.44
2022-07-28T21:46:03.489Z,20.29
2022-07-28T21:51:15.700Z,20.50
2022-07-28T21:56:22.685Z,20.27
2022-07-28T22:01:28.332Z,20.70
2022-07-28T22:06:32.252Z,20.50
2022-07-28T22:11:35.971Z,20.19
2022-07-28T22:16:41.110Z,20.07
2022-07-28T22:21:44.749Z,19.75
2022-07-28T22:26:52.422Z,19.87
2022-07-28T22:31:59.392Z,19.74
2022-07-28T22:37:11.192Z,19.49
2022-07-28T22:42:16.899Z,19.41
2022-07-28T22:47:22.004Z,19.83
2022-07-28T22:52:26.872Z,19.72
2022-07-28T22:57:30.558Z,20.02
2022-07-28T23:02:35.803Z,19.55
2022-07-28T23:07:52.967Z,19.33
2022-07-28T23:13:01.305Z,19.43
2022-07-28T23:18:06.413Z,19.46
2022-07-28T23:23:10.639Z,19.28
2022-07-28T23:28:14.349Z,19.23
2022-07-28T23:33:55.945Z,18.94
2022-07-28T23:38:43.508Z,19.27
2022-07-28T23:43:51.074Z,19.48
2022-07-28T23:48:56.264Z,19.31
2022-07-28T23:54:00.075Z,19.37
2022-07-28T23:59:03.718Z,19.18
